Flight Track Log - Related Links

Times and Time Zones

All times are in EDT time to prevent confusion due to time zone crossing. See the SWA3678 flight status page for this flight to view local times or setup timezone preferences in your user account.

Time Position Orientation Groundspeed Altitude Reporting Facility
EDT Latitude Longitude Course Direction KTS MPH feet Rate Location/Type
Sat 19:00:12 27.9667 -82.5500 211° Southwest 168 193 600  Level Tampa TRACON
Sat 19:01:18 27.9167 -82.5833 211° Southwest 205 236 3,300 2,938 Climbing Tampa TRACON
Sat 19:03:26 27.9369 -82.7094 280° West 210 242 10,100 3,160 Climbing Jacksonville Center
Sat 19:04:26 27.9850 -82.7703 312° West 226 260 13,200 2,500 Climbing Jacksonville Center
Sat 19:05:26 28.0372 -82.8339 313° West 251 289 15,100 2,100 Climbing Jacksonville Center
Sat 19:06:26 28.1353 -82.8383 358° North 295 339 17,400 2,250 Climbing Jacksonville Center
Sat 19:07:26 28.2439 -82.8336 North 343 395 19,600 2,250 Climbing Jacksonville Center
Sat 19:08:26 28.3544 -82.8242 North 364 419 21,900 2,350 Climbing Jacksonville Center
Sat 19:09:26 28.4672 -82.8100 North 386 444 24,300 2,200 Climbing Jacksonville Center
Sat 19:10:26 28.5861 -82.7956 North 407 468 26,300 1,850 Climbing Jacksonville Center
Sat 19:11:26 28.7028 -82.7789 North 420 483 28,000 850 Climbing Jacksonville Center
Sat 19:12:26 28.8219 -82.7647 North 426 490 28,000  Level Jacksonville Center
Sat 19:13:26 28.9386 -82.7503 North 426 490 28,000  Level Jacksonville Center
Sat 19:14:26 29.0578 -82.7358 North 426 490 28,000  Level Jacksonville Center
Sat 19:15:26 29.1767 -82.7214 North 426 490 28,000  Level Jacksonville Center
Sat 19:16:26 29.2978 -82.7069 North 426 490 28,000  Level Jacksonville Center
Sat 19:17:26 29.4167 -82.6922 North 426 490 28,000  Level Jacksonville Center
Sat 19:18:26 29.5272 -82.6969 358° North 426 490 28,000  Level Jacksonville Center
Sat 19:19:26 29.6506 -82.6967 360° North 426 490 28,000  Level Jacksonville Center
Sat 19:20:26 29.7694 -82.6939 North 426 490 28,000 350 Level Jacksonville Center
Sat 19:21:26 29.8883 -82.6914 North 426 490 28,700 500 Climbing Jacksonville Center
Sat 19:22:26 30.0200 -82.6911 360° North 426 490 29,000 150 Climbing Jacksonville Center
Sat 19:23:26 30.1306 -82.6883 North 426 490 29,000  Level Jacksonville Center
Sat 19:24:26 30.2517 -82.6881 360° North 426 490 29,000  Level Jacksonville Center
Sat 19:25:26 30.3750 -82.6856 North 432 497 29,000  Level Jacksonville Center
Sat 19:26:26 30.4981 -82.6828 North 437 503 29,000  Level Jacksonville Center
Sat 19:27:26 30.6275 -82.6319 19° North 437 503 29,000  Level Jacksonville Center
Sat 19:28:26 30.7400 -82.5736 24° Northeast 432 497 29,000  Level Jacksonville Center
Sat 19:29:26 30.8547 -82.5175 23° Northeast 438 504 29,000  Level Jacksonville Center
Sat 19:30:26 30.9672 -82.4636 22° Northeast 438 504 29,000  Level Jacksonville Center
Sat 19:31:27 31.0842 -82.4097 22° Northeast 438 504 29,000  Level Jacksonville Center
Sat 19:32:27 31.1967 -82.3533 23° Northeast 433 498 29,000  Level Jacksonville Center
Sat 19:33:26 31.3092 -82.2969 23° Northeast 433 498 29,000  Level Jacksonville Center
Sat 19:34:26 31.4236 -82.2425 22° Northeast 433 498 29,000  Level Jacksonville Center
Sat 19:35:26 31.5403 -82.1856 23° Northeast 433 498 29,000  Level Jacksonville Center
Sat 19:36:26 31.6547 -82.1261 24° Northeast 443 510 29,000  Level Jacksonville Center
Sat 19:37:26 31.7608 -82.0739 23° Northeast 448 516 29,000  Level Jacksonville Center
Sat 19:38:26 31.8900 -82.0092 23° Northeast 457 526 29,000  Level Jacksonville Center
Sat 19:39:26 31.9939 -81.9592 22° Northeast 452 520 29,000  Level Jacksonville Center
Sat 19:40:26 32.1250 -81.8967 22° Northeast 461 531 29,000  Level Jacksonville Center
Sat 19:41:26 32.2436 -81.8414 22° Northeast 455 524 29,000  Level Jacksonville Center
Sat 19:42:26 32.3497 -81.7908 22° Northeast 455 524 29,000  Level Jacksonville Center
Sat 19:43:26 32.4786 -81.7278 22° Northeast 448 516 29,000  Level Jacksonville Center
Sat 19:44:26 32.5969 -81.6744 21° North 448 516 29,000  Level Jacksonville Center
Sat 19:45:26 32.7008 -81.6211 23° Northeast 448 516 29,000  Level Jacksonville Center
Sat 19:46:27 32.8172 -81.5653 22° Northeast 448 516 29,000  Level Jacksonville Center
Sat 19:47:26 32.9356 -81.5064 23° Northeast 448 516 29,000  Level Jacksonville Center
Sat 19:48:26 33.0411 -81.4331 30° Northeast 442 509 29,000  Level Jacksonville Center
Sat 19:49:26 33.1467 -81.3469 34° Northeast 442 509 29,000  Level Jacksonville Center
Sat 19:50:26 33.2519 -81.2558 36° Northeast 455 524 29,000  Level Jacksonville Center
Sat 19:51:26 33.3592 -81.1667 35° Northeast 460 529 29,000 -50 Level Jacksonville Center
Sat 19:52:26 33.4625 -81.0800 35° Northeast 460 529 28,900 -400 Descending Jacksonville Center
Sat 19:53:26 33.5694 -80.9881 36° Northeast 460 529 28,200 -450 Descending Jacksonville Center
Sat 19:54:26 33.6767 -80.8983 35° Northeast 460 529 28,000 -100 Descending Jacksonville Center
Sat 19:55:26 33.7794 -80.8086 36° Northeast 460 529 28,000 -250 Level Jacksonville Center
Sat 19:56:26 33.8864 -80.7161 36° Northeast 460 529 27,500 -550 Descending Jacksonville Center
Sat 19:57:26 33.9892 -80.6283 35° Northeast 460 529 26,900 -250 Descending Jacksonville Center
Sat 19:58:26 34.0919 -80.5406 35° Northeast 460 529 27,000 50 Climbing Jacksonville Center
Sat 19:59:26 34.1925 -80.4550 35° Northeast 455 524 27,000  Level Jacksonville Center
Sat 20:00:26 34.2931 -80.3642 37° Northeast 449 517 27,000  Level Jacksonville Center
Sat 20:02:00 34.4489 -80.2308 35° Northeast 441 507 27,000  Level Washington Center
Sat 20:02:58 34.5483 -80.1433 36° Northeast 441 507 27,000  Level Washington Center
Sat 20:03:59 34.6519 -80.0506 36° Northeast 441 507 27,000  Level Washington Center
Sat 20:04:58 34.7425 -79.9747 35° Northeast 441 507 27,000  Level Washington Center
Sat 20:05:58 34.8417 -79.8864 36° Northeast 441 507 27,000  Level Washington Center
Sat 20:06:59 34.9408 -79.7978 36° Northeast 441 507 27,000  Level Washington Center
Sat 20:07:58 35.0397 -79.7092 36° Northeast 441 507 27,000  Level Washington Center
Sat 20:08:59 35.1408 -79.6228 35° Northeast 441 507 27,000  Level Washington Center
Sat 20:10:00 35.2436 -79.5442 32° Northeast 441 507 27,000  Level Washington Center
Sat 20:11:00 35.3506 -79.4653 31° Northeast 436 502 27,000  Level Washington Center
Sat 20:11:59 35.4681 -79.3792 31° Northeast 441 507 27,000  Level Washington Center
Sat 20:13:00 35.5642 -79.3122 30° Northeast 436 502 27,000  Level Washington Center
Sat 20:14:00 35.6708 -79.2356 30° Northeast 436 502 27,000  Level Washington Center
Sat 20:14:58 35.7775 -79.1558 31° Northeast 436 502 27,000  Level Washington Center
Sat 20:15:58 35.8842 -79.0786 30° Northeast 436 502 27,000  Level Washington Center
Sat 20:16:58 35.9908 -78.9986 31° Northeast 436 502 27,000  Level Washington Center
Sat 20:17:59 36.0953 -78.9208 31° Northeast 436 502 27,000  Level Washington Center
Sat 20:18:58 36.2017 -78.8406 31° Northeast 436 502 27,000  Level Washington Center
Sat 20:19:59 36.3081 -78.7622 31° Northeast 436 502 27,000 -49 Level Washington Center
Sat 20:21:00 36.4125 -78.6839 31° Northeast 436 502 26,900 -605 Descending Washington Center
Sat 20:21:58 36.5167 -78.6056 31° Northeast 436 502 25,800 -966 Descending Washington Center
Sat 20:22:58 36.6189 -78.5264 32° Northeast 436 502 25,000 -397 Descending Washington Center
Sat 20:23:59 36.7292 -78.4425 31° Northeast 431 496 25,000  Level Washington Center
Sat 20:24:59 36.8311 -78.3658 31° Northeast 431 496 25,000  Level Washington Center
Sat 20:25:58 36.9311 -78.2889 32° Northeast 426 490 25,000  Level Washington Center
Sat 20:26:58 37.0350 -78.2094 31° Northeast 426 490 25,000  Level Washington Center
Sat 20:27:58 37.1389 -78.1294 32° Northeast 431 496 25,000  Level Washington Center
Sat 20:28:58 37.2408 -78.0519 31° Northeast 431 496 25,000  Level Washington Center
Sat 20:29:59 37.3425 -77.9717 32° Northeast 431 496 25,000  Level Washington Center
Sat 20:31:00 37.4464 -77.8911 32° Northeast 431 496 25,000  Level Washington Center
Sat 20:32:00 37.5458 -77.8131 32° Northeast 431 496 25,000  Level Washington Center
Sat 20:32:58 37.6433 -77.7242 36° Northeast 436 502 25,000  Level Washington Center
Sat 20:33:59 37.7428 -77.6375 35° Northeast 436 502 25,000  Level Washington Center
Sat 20:34:58 37.8361 -77.5481 37° Northeast 431 496 25,000  Level Washington Center
Sat 20:35:59 37.9294 -77.4583 37° Northeast 426 490 25,000  Level Washington Center
Sat 20:36:59 38.0083 -77.3392 50° Northeast 421 484 25,000  Level Washington Center
Sat 20:38:00 38.0789 -77.2194 53° Northeast 421 484 25,000  Level Washington Center
Sat 20:38:59 38.1556 -77.0917 53° Northeast 437 503 25,000  Level Washington Center
Sat 20:39:59 38.2278 -76.9661 54° Northeast 437 503 25,000  Level Washington Center
Sat 20:40:59 38.3022 -76.8431 52° Northeast 437 503 25,000  Level Washington Center
Sat 20:41:59 38.3764 -76.7200 52° Northeast 437 503 25,000 -202 Level Washington Center
Sat 20:42:58 38.4506 -76.5911 54° Northeast 437 503 24,600 -706 Descending Washington Center
Sat 20:43:58 38.5225 -76.4675 53° Northeast 437 503 23,600 -934 Descending Washington Center
Sat 20:45:00 38.5983 -76.3433 52° Northeast 437 503 22,700 -950 Descending Washington Center
Sat 20:45:58 38.6803 -76.2192 50° Northeast 437 503 21,700 -1,119 Descending Washington Center
Sat 20:46:58 38.7786 -76.1350 34° Northeast 470 541 20,500 -1,587 Descending Washington Center
Sat 20:47:59 38.8686 -76.0369 40° Northeast 453 521 18,500 -2,066 Descending Washington Center
Sat 20:49:00 38.9461 -75.9306 47° Northeast 406 467 16,300 -2,045 Descending Washington Center
Sat 20:50:55 39.1167 -75.7667 37° Northeast 371 427 12,500 -1,954 Descending Philadelphia TRACON
Sat 20:51:55 39.2000 -75.7000 32° Northeast 365 420 10,600 -1,316 Descending Philadelphia TRACON
Sat 20:52:49 39.2833 -75.6500 25° Northeast 329 379 10,000 -632 Descending Philadelphia TRACON
Sat 20:53:49 39.3667 -75.5833 32° Northeast 317 365 9,400 -750 Descending Philadelphia TRACON
Sat 20:54:49 39.4167 -75.5000 52° Northeast 319 367 8,500 -450 Descending Philadelphia TRACON
Sat 20:55:49 39.4333 -75.4000 78° East 308 354 8,500 -700 Level Philadelphia TRACON
Sat 20:56:49 39.4833 -75.3000 57° Northeast 313 360 7,100 -1,300 Descending Philadelphia TRACON
Sat 20:57:49 39.5500 -75.2333 38° Northeast 291 335 5,900 -1,200 Descending Philadelphia TRACON
Sat 20:58:49 39.6167 -75.1833 30° Northeast 292 336 4,700 -1,000 Descending Philadelphia TRACON
Sat 20:59:49 39.6833 -75.1333 30° Northeast 278 320 3,900 -857 Descending Philadelphia TRACON
Sat 21:00:55 39.7667 -75.1167 North 253 291 2,900 -857 Descending Philadelphia TRACON
Sat 21:01:55 39.8167 -75.1000 14° North 224 258 2,100 -526 Descending Philadelphia TRACON
Sat 21:02:49 39.8667 -75.1000 360° North 178 205 1,900 -526 Descending Philadelphia TRACON
Sat 21:03:49 39.8833 -75.1500 293° West 138 159 1,100 -700 Descending Philadelphia TRACON
Sat 21:04:49 39.8833 -75.2000 270° West 139 160 500 -600 Descending Philadelphia TRACON
Sat 21:06:00 39.8667 -75.2333 255° West  Level FlightAware
Sat 21:13:00 39.8722 -75.2409 255° West  Level Estimated

Login

Don't have an account? Register now (free) for customized features, flight alerts, and more!